sensor_id;sensor_type;location;lat;lon;timestamp;P1;durP1;ratioP1;P2;durP2;ratioP2
21432;SDS011;18592;49.708;10.900;2022-09-09T00:00:19;3.33;;;1.20;;
21432;SDS011;18592;49.708;10.900;2022-09-09T00:02:23;2.97;;;1.20;;
21432;SDS011;18592;49.708;10.900;2022-09-09T00:04:34;2.10;;;1.10;;
21432;SDS011;18592;49.708;10.900;2022-09-09T00:06:44;2.30;;;1.08;;
21432;SDS011;18592;49.708;10.900;2022-09-09T00:08:58;2.35;;;1.13;;
21432;SDS011;18592;49.708;10.900;2022-09-09T00:11:12;2.60;;;1.35;;
21432;SDS011;18592;49.708;10.900;2022-09-09T00:13:41;1.58;;;1.08;;
21432;SDS011;18592;49.708;10.900;2022-09-09T00:23:12;3.20;;;1.42;;
21432;SDS011;18592;49.708;10.900;2022-09-09T00:25:27;3.33;;;1.30;;
21432;SDS011;18592;49.708;10.900;2022-09-09T00:27:45;2.55;;;1.30;;
21432;SDS011;18592;49.708;10.900;2022-09-09T00:32:00;2.65;;;1.30;;
21432;SDS011;18592;49.708;10.900;2022-09-09T00:34:20;2.60;;;1.02;;
21432;SDS011;18592;49.708;10.900;2022-09-09T00:36:24;2.03;;;1.30;;
21432;SDS011;18592;49.708;10.900;2022-09-09T00:38:33;3.63;;;1.48;;
21432;SDS011;18592;49.708;10.900;2022-09-09T00:40:45;3.80;;;1.50;;
21432;SDS011;18592;49.708;10.900;2022-09-09T00:42:54;3.95;;;1.88;;
21432;SDS011;18592;49.708;10.900;2022-09-09T00:45:10;2.40;;;1.30;;
21432;SDS011;18592;49.708;10.900;2022-09-09T00:52:16;2.85;;;1.60;;
21432;SDS011;18592;49.708;10.900;2022-09-09T01:02:21;2.03;;;1.40;;
21432;SDS011;18592;49.708;10.900;2022-09-09T01:04:33;1.95;;;1.30;;
21432;SDS011;18592;49.708;10.900;2022-09-09T01:06:37;1.77;;;1.10;;
21432;SDS011;18592;49.708;10.900;2022-09-09T01:08:48;3.65;;;1.60;;
21432;SDS011;18592;49.708;10.900;2022-09-09T01:10:54;1.77;;;1.38;;
21432;SDS011;18592;49.708;10.900;2022-09-09T01:13:02;4.00;;;1.50;;
21432;SDS011;18592;49.708;10.900;2022-09-09T01:15:20;2.17;;;1.45;;
21432;SDS011;18592;49.708;10.900;2022-09-09T01:17:27;3.08;;;1.30;;
21432;SDS011;18592;49.708;10.900;2022-09-09T01:22:01;1.85;;;1.25;;
21432;SDS011;18592;49.708;10.900;2022-09-09T01:26:47;3.47;;;1.63;;
21432;SDS011;18592;49.708;10.900;2022-09-09T01:28:58;2.97;;;1.50;;
21432;SDS011;18592;49.708;10.900;2022-09-09T01:31:11;3.03;;;1.50;;
21432;SDS011;18592;49.708;10.900;2022-09-09T01:33:20;3.83;;;1.73;;
21432;SDS011;18592;49.708;10.900;2022-09-09T01:37:35;2.33;;;1.40;;
21432;SDS011;18592;49.708;10.900;2022-09-09T01:39:39;3.08;;;1.60;;
21432;SDS011;18592;49.708;10.900;2022-09-09T01:41:47;2.85;;;1.40;;
21432;SDS011;18592;49.708;10.900;2022-09-09T01:43:52;2.58;;;1.50;;
21432;SDS011;18592;49.708;10.900;2022-09-09T01:45:59;3.20;;;1.73;;
21432;SDS011;18592;49.708;10.900;2022-09-09T01:48:02;1.60;;;1.20;;
21432;SDS011;18592;49.708;10.900;2022-09-09T01:50:17;1.95;;;1.42;;
21432;SDS011;18592;49.708;10.900;2022-09-09T01:52:19;2.92;;;1.50;;
21432;SDS011;18592;49.708;10.900;2022-09-09T01:54:22;2.55;;;1.40;;
21432;SDS011;18592;49.708;10.900;2022-09-09T01:58:33;2.25;;;1.27;;
21432;SDS011;18592;49.708;10.900;2022-09-09T02:00:35;1.80;;;1.38;;
21432;SDS011;18592;49.708;10.900;2022-09-09T02:02:48;2.92;;;1.50;;
21432;SDS011;18592;49.708;10.900;2022-09-09T02:05:08;4.22;;;1.38;;
21432;SDS011;18592;49.708;10.900;2022-09-09T02:07:27;2.40;;;1.38;;
21432;SDS011;18592;49.708;10.900;2022-09-09T02:09:57;1.85;;;1.30;;
21432;SDS011;18592;49.708;10.900;2022-09-09T02:12:11;2.17;;;1.40;;
21432;SDS011;18592;49.708;10.900;2022-09-09T02:14:23;2.08;;;1.30;;
21432;SDS011;18592;49.708;10.900;2022-09-09T02:16:42;2.53;;;1.50;;
21432;SDS011;18592;49.708;10.900;2022-09-09T02:21:30;1.92;;;1.20;;
21432;SDS011;18592;49.708;10.900;2022-09-09T02:23:33;1.83;;;1.38;;
21432;SDS011;18592;49.708;10.900;2022-09-09T02:25:40;3.20;;;1.40;;
21432;SDS011;18592;49.708;10.900;2022-09-09T02:27:55;2.90;;;1.10;;
21432;SDS011;18592;49.708;10.900;2022-09-09T02:30:00;3.65;;;1.10;;
21432;SDS011;18592;49.708;10.900;2022-09-09T02:32:17;2.35;;;1.17;;
21432;SDS011;18592;49.708;10.900;2022-09-09T02:34:23;1.92;;;1.27;;
21432;SDS011;18592;49.708;10.900;2022-09-09T02:36:27;2.00;;;1.23;;
21432;SDS011;18592;49.708;10.900;2022-09-09T02:38:33;2.22;;;1.27;;
21432;SDS011;18592;49.708;10.900;2022-09-09T02:40:42;1.30;;;1.08;;
21432;SDS011;18592;49.708;10.900;2022-09-09T02:42:45;1.42;;;1.10;;
21432;SDS011;18592;49.708;10.900;2022-09-09T02:44:52;1.98;;;1.00;;
21432;SDS011;18592;49.708;10.900;2022-09-09T02:55:52;2.90;;;1.20;;
21432;SDS011;18592;49.708;10.900;2022-09-09T02:58:03;3.38;;;1.15;;
21432;SDS011;18592;49.708;10.900;2022-09-09T03:00:11;1.92;;;1.45;;
21432;SDS011;18592;49.708;10.900;2022-09-09T03:02:18;2.60;;;1.33;;
21432;SDS011;18592;49.708;10.900;2022-09-09T03:04:26;1.70;;;1.27;;
21432;SDS011;18592;49.708;10.900;2022-09-09T03:06:28;2.10;;;1.08;;
21432;SDS011;18592;49.708;10.900;2022-09-09T03:08:39;3.58;;;1.40;;
21432;SDS011;18592;49.708;10.900;2022-09-09T03:10:42;2.15;;;1.40;;
21432;SDS011;18592;49.708;10.900;2022-09-09T03:12:48;4.75;;;1.48;;
21432;SDS011;18592;49.708;10.900;2022-09-09T03:14:53;2.00;;;1.20;;
21432;SDS011;18592;49.708;10.900;2022-09-09T03:16:58;1.73;;;1.35;;
21432;SDS011;18592;49.708;10.900;2022-09-09T03:19:05;3.10;;;1.20;;
21432;SDS011;18592;49.708;10.900;2022-09-09T03:21:07;1.95;;;1.50;;
21432;SDS011;18592;49.708;10.900;2022-09-09T03:23:14;3.05;;;1.20;;
21432;SDS011;18592;49.708;10.900;2022-09-09T03:25:17;3.15;;;1.30;;
21432;SDS011;18592;49.708;10.900;2022-09-09T03:27:20;2.95;;;1.40;;
21432;SDS011;18592;49.708;10.900;2022-09-09T03:29:21;1.92;;;1.17;;
21432;SDS011;18592;49.708;10.900;2022-09-09T03:31:29;1.70;;;1.30;;
21432;SDS011;18592;49.708;10.900;2022-09-09T03:33:32;3.00;;;1.45;;
21432;SDS011;18592;49.708;10.900;2022-09-09T03:35:39;1.52;;;1.20;;
21432;SDS011;18592;49.708;10.900;2022-09-09T03:37:47;1.55;;;1.23;;
21432;SDS011;18592;49.708;10.900;2022-09-09T03:39:50;2.58;;;1.27;;
21432;SDS011;18592;49.708;10.900;2022-09-09T03:41:54;1.40;;;1.00;;
21432;SDS011;18592;49.708;10.900;2022-09-09T03:43:56;2.95;;;1.20;;
21432;SDS011;18592;49.708;10.900;2022-09-09T03:45:59;2.10;;;1.20;;
21432;SDS011;18592;49.708;10.900;2022-09-09T03:48:03;2.10;;;1.40;;
21432;SDS011;18592;49.708;10.900;2022-09-09T03:50:07;2.03;;;1.42;;
21432;SDS011;18592;49.708;10.900;2022-09-09T03:52:15;1.80;;;1.33;;
21432;SDS011;18592;49.708;10.900;2022-09-09T03:54:24;1.40;;;1.08;;
21432;SDS011;18592;49.708;10.900;2022-09-09T03:56:26;1.90;;;1.33;;
21432;SDS011;18592;49.708;10.900;2022-09-09T03:58:29;2.88;;;1.50;;
21432;SDS011;18592;49.708;10.900;2022-09-09T04:00:38;2.78;;;1.38;;
21432;SDS011;18592;49.708;10.900;2022-09-09T04:02:44;3.08;;;1.67;;
21432;SDS011;18592;49.708;10.900;2022-09-09T04:04:49;1.63;;;1.15;;
21432;SDS011;18592;49.708;10.900;2022-09-09T04:06:51;1.77;;;1.20;;
21432;SDS011;18592;49.708;10.900;2022-09-09T04:08:53;1.85;;;1.17;;
21432;SDS011;18592;49.708;10.900;2022-09-09T04:10:57;2.10;;;1.55;;
21432;SDS011;18592;49.708;10.900;2022-09-09T04:13:01;3.03;;;1.30;;
21432;SDS011;18592;49.708;10.900;2022-09-09T04:15:03;2.55;;;1.42;;
21432;SDS011;18592;49.708;10.900;2022-09-09T04:17:05;1.75;;;1.27;;
21432;SDS011;18592;49.708;10.900;2022-09-09T04:19:08;3.60;;;1.25;;
21432;SDS011;18592;49.708;10.900;2022-09-09T04:21:09;1.85;;;1.25;;
21432;SDS011;18592;49.708;10.900;2022-09-09T04:23:12;2.50;;;1.42;;
21432;SDS011;18592;49.708;10.900;2022-09-09T04:25:17;1.92;;;1.20;;
21432;SDS011;18592;49.708;10.900;2022-09-09T04:27:19;3.08;;;1.30;;
21432;SDS011;18592;49.708;10.900;2022-09-09T04:29:21;2.63;;;1.52;;
21432;SDS011;18592;49.708;10.900;2022-09-09T04:31:22;1.85;;;1.20;;
21432;SDS011;18592;49.708;10.900;2022-09-09T04:33:29;3.65;;;1.20;;
21432;SDS011;18592;49.708;10.900;2022-09-09T04:35:32;3.92;;;1.63;;
21432;SDS011;18592;49.708;10.900;2022-09-09T04:37:35;1.88;;;1.30;;
21432;SDS011;18592;49.708;10.900;2022-09-09T04:39:37;3.22;;;1.20;;
21432;SDS011;18592;49.708;10.900;2022-09-09T04:41:39;1.70;;;1.10;;
21432;SDS011;18592;49.708;10.900;2022-09-09T04:43:43;2.35;;;1.13;;
21432;SDS011;18592;49.708;10.900;2022-09-09T04:45:48;3.10;;;1.30;;
21432;SDS011;18592;49.708;10.900;2022-09-09T04:47:59;2.20;;;1.25;;
21432;SDS011;18592;49.708;10.900;2022-09-09T04:50:01;1.83;;;1.17;;
21432;SDS011;18592;49.708;10.900;2022-09-09T04:52:03;2.40;;;1.20;;
21432;SDS011;18592;49.708;10.900;2022-09-09T04:54:07;1.80;;;1.30;;
21432;SDS011;18592;49.708;10.900;2022-09-09T04:56:11;1.77;;;1.10;;
21432;SDS011;18592;49.708;10.900;2022-09-09T04:58:18;3.35;;;1.40;;
21432;SDS011;18592;49.708;10.900;2022-09-09T05:00:24;3.25;;;1.30;;
21432;SDS011;18592;49.708;10.900;2022-09-09T05:02:29;4.00;;;1.35;;
21432;SDS011;18592;49.708;10.900;2022-09-09T05:04:32;1.80;;;1.33;;
21432;SDS011;18592;49.708;10.900;2022-09-09T05:06:34;3.70;;;1.27;;
21432;SDS011;18592;49.708;10.900;2022-09-09T05:08:39;1.88;;;1.40;;
21432;SDS011;18592;49.708;10.900;2022-09-09T05:10:42;2.97;;;1.30;;
21432;SDS011;18592;49.708;10.900;2022-09-09T05:12:52;1.27;;;1.17;;
21432;SDS011;18592;49.708;10.900;2022-09-09T05:14:58;2.55;;;1.30;;
21432;SDS011;18592;49.708;10.900;2022-09-09T05:17:00;2.35;;;1.50;;
21432;SDS011;18592;49.708;10.900;2022-09-09T05:19:02;2.88;;;1.60;;
21432;SDS011;18592;49.708;10.900;2022-09-09T05:21:18;2.20;;;1.17;;
21432;SDS011;18592;49.708;10.900;2022-09-09T05:23:21;1.95;;;1.55;;
21432;SDS011;18592;49.708;10.900;2022-09-09T05:25:26;1.45;;;1.30;;
21432;SDS011;18592;49.708;10.900;2022-09-09T05:27:29;2.42;;;1.35;;
21432;SDS011;18592;49.708;10.900;2022-09-09T05:29:34;3.05;;;1.63;;
21432;SDS011;18592;49.708;10.900;2022-09-09T05:31:37;1.98;;;1.52;;
21432;SDS011;18592;49.708;10.900;2022-09-09T05:33:45;2.40;;;1.40;;
21432;SDS011;18592;49.708;10.900;2022-09-09T05:35:57;2.78;;;1.40;;
21432;SDS011;18592;49.708;10.900;2022-09-09T05:37:59;2.22;;;1.45;;
21432;SDS011;18592;49.708;10.900;2022-09-09T05:40:02;2.15;;;1.45;;
21432;SDS011;18592;49.708;10.900;2022-09-09T05:42:04;2.75;;;1.70;;
21432;SDS011;18592;49.708;10.900;2022-09-09T05:44:07;3.78;;;1.60;;
21432;SDS011;18592;49.708;10.900;2022-09-09T05:46:22;3.08;;;1.48;;
21432;SDS011;18592;49.708;10.900;2022-09-09T05:48:28;1.60;;;1.25;;
21432;SDS011;18592;49.708;10.900;2022-09-09T05:50:31;3.03;;;1.50;;
21432;SDS011;18592;49.708;10.900;2022-09-09T05:52:33;4.38;;;1.48;;
21432;SDS011;18592;49.708;10.900;2022-09-09T05:54:35;2.38;;;1.40;;
21432;SDS011;18592;49.708;10.900;2022-09-09T05:56:40;1.73;;;1.10;;
21432;SDS011;18592;49.708;10.900;2022-09-09T05:58:43;1.85;;;1.20;;
21432;SDS011;18592;49.708;10.900;2022-09-09T06:00:46;3.88;;;1.50;;
21432;SDS011;18592;49.708;10.900;2022-09-09T06:02:52;4.53;;;1.60;;
21432;SDS011;18592;49.708;10.900;2022-09-09T06:04:55;2.03;;;1.30;;
21432;SDS011;18592;49.708;10.900;2022-09-09T06:07:02;2.42;;;1.40;;
21432;SDS011;18592;49.708;10.900;2022-09-09T06:09:04;1.85;;;1.33;;
21432;SDS011;18592;49.708;10.900;2022-09-09T06:13:41;2.40;;;1.52;;
21432;SDS011;18592;49.708;10.900;2022-09-09T06:15:50;2.45;;;1.25;;
21432;SDS011;18592;49.708;10.900;2022-09-09T06:17:54;1.63;;;1.50;;
21432;SDS011;18592;49.708;10.900;2022-09-09T06:19:59;2.15;;;1.20;;
21432;SDS011;18592;49.708;10.900;2022-09-09T06:22:01;2.13;;;1.23;;
21432;SDS011;18592;49.708;10.900;2022-09-09T06:24:05;4.20;;;1.38;;
21432;SDS011;18592;49.708;10.900;2022-09-09T06:28:20;1.98;;;1.23;;
21432;SDS011;18592;49.708;10.900;2022-09-09T06:30:22;2.05;;;1.20;;
21432;SDS011;18592;49.708;10.900;2022-09-09T06:32:24;2.80;;;1.17;;
21432;SDS011;18592;49.708;10.900;2022-09-09T06:34:28;2.30;;;0.90;;
21432;SDS011;18592;49.708;10.900;2022-09-09T06:36:32;1.70;;;1.05;;
21432;SDS011;18592;49.708;10.900;2022-09-09T06:38:36;2.47;;;1.15;;
21432;SDS011;18592;49.708;10.900;2022-09-09T06:40:38;2.55;;;1.33;;
21432;SDS011;18592;49.708;10.900;2022-09-09T06:42:42;1.38;;;1.02;;
21432;SDS011;18592;49.708;10.900;2022-09-09T06:45:06;2.13;;;1.30;;
21432;SDS011;18592;49.708;10.900;2022-09-09T06:47:15;3.20;;;1.20;;
21432;SDS011;18592;49.708;10.900;2022-09-09T06:49:17;2.67;;;1.20;;
21432;SDS011;18592;49.708;10.900;2022-09-09T06:51:20;2.83;;;1.10;;
21432;SDS011;18592;49.708;10.900;2022-09-09T06:53:23;2.75;;;1.33;;
21432;SDS011;18592;49.708;10.900;2022-09-09T06:55:25;1.38;;;1.00;;
21432;SDS011;18592;49.708;10.900;2022-09-09T06:57:36;3.15;;;1.33;;
21432;SDS011;18592;49.708;10.900;2022-09-09T06:59:52;2.30;;;0.95;;
21432;SDS011;18592;49.708;10.900;2022-09-09T07:01:54;2.20;;;1.25;;
21432;SDS011;18592;49.708;10.900;2022-09-09T07:03:58;5.22;;;1.10;;
21432;SDS011;18592;49.708;10.900;2022-09-09T07:06:01;1.95;;;1.25;;
21432;SDS011;18592;49.708;10.900;2022-09-09T07:08:02;7.38;;;1.25;;
21432;SDS011;18592;49.708;10.900;2022-09-09T07:10:04;2.35;;;0.85;;
21432;SDS011;18592;49.708;10.900;2022-09-09T07:12:07;3.08;;;1.23;;
21432;SDS011;18592;49.708;10.900;2022-09-09T07:14:12;1.17;;;0.88;;
21432;SDS011;18592;49.708;10.900;2022-09-09T07:16:18;1.85;;;1.10;;
21432;SDS011;18592;49.708;10.900;2022-09-09T07:18:21;1.63;;;0.90;;
21432;SDS011;18592;49.708;10.900;2022-09-09T07:20:23;1.80;;;1.00;;
21432;SDS011;18592;49.708;10.900;2022-09-09T07:22:27;3.00;;;0.90;;
21432;SDS011;18592;49.708;10.900;2022-09-09T07:24:30;3.00;;;1.08;;
21432;SDS011;18592;49.708;10.900;2022-09-09T07:26:32;1.98;;;1.02;;
21432;SDS011;18592;49.708;10.900;2022-09-09T07:28:36;1.75;;;1.00;;
21432;SDS011;18592;49.708;10.900;2022-09-09T07:30:39;2.72;;;1.00;;
21432;SDS011;18592;49.708;10.900;2022-09-09T07:32:44;1.73;;;0.93;;
21432;SDS011;18592;49.708;10.900;2022-09-09T07:34:46;2.97;;;1.20;;
21432;SDS011;18592;49.708;10.900;2022-09-09T07:36:48;1.80;;;1.10;;
21432;SDS011;18592;49.708;10.900;2022-09-09T07:38:53;1.20;;;1.00;;
21432;SDS011;18592;49.708;10.900;2022-09-09T07:41:04;1.88;;;1.02;;
21432;SDS011;18592;49.708;10.900;2022-09-09T07:43:08;1.73;;;1.08;;
21432;SDS011;18592;49.708;10.900;2022-09-09T07:45:13;1.92;;;0.90;;
21432;SDS011;18592;49.708;10.900;2022-09-09T07:47:16;2.60;;;1.10;;
21432;SDS011;18592;49.708;10.900;2022-09-09T07:49:23;1.33;;;0.90;;
21432;SDS011;18592;49.708;10.900;2022-09-09T07:51:34;1.42;;;0.90;;
21432;SDS011;18592;49.708;10.900;2022-09-09T07:53:40;3.70;;;1.17;;
21432;SDS011;18592;49.708;10.900;2022-09-09T07:55:42;1.67;;;1.02;;
21432;SDS011;18592;49.708;10.900;2022-09-09T07:57:44;1.38;;;0.75;;
21432;SDS011;18592;49.708;10.900;2022-09-09T07:59:46;1.77;;;0.98;;
21432;SDS011;18592;49.708;10.900;2022-09-09T08:01:49;2.60;;;1.10;;
21432;SDS011;18592;49.708;10.900;2022-09-09T08:03:59;1.33;;;0.80;;
21432;SDS011;18592;49.708;10.900;2022-09-09T08:06:05;1.52;;;0.90;;
21432;SDS011;18592;49.708;10.900;2022-09-09T08:08:10;0.95;;;0.70;;
21432;SDS011;18592;49.708;10.900;2022-09-09T08:10:12;1.27;;;0.88;;
21432;SDS011;18592;49.708;10.900;2022-09-09T08:12:16;1.35;;;0.80;;
21432;SDS011;18592;49.708;10.900;2022-09-09T08:14:18;2.10;;;0.90;;
21432;SDS011;18592;49.708;10.900;2022-09-09T08:16:26;1.38;;;0.80;;
21432;SDS011;18592;49.708;10.900;2022-09-09T08:18:30;1.50;;;0.80;;
21432;SDS011;18592;49.708;10.900;2022-09-09T08:20:32;2.22;;;0.73;;
21432;SDS011;18592;49.708;10.900;2022-09-09T08:22:36;1.00;;;0.70;;
21432;SDS011;18592;49.708;10.900;2022-09-09T08:24:39;2.28;;;0.88;;
21432;SDS011;18592;49.708;10.900;2022-09-09T08:26:45;1.08;;;0.70;;
21432;SDS011;18592;49.708;10.900;2022-09-09T08:28:53;1.40;;;0.70;;
21432;SDS011;18592;49.708;10.900;2022-09-09T08:33:16;1.92;;;0.90;;
21432;SDS011;18592;49.708;10.900;2022-09-09T08:35:19;1.58;;;0.80;;
21432;SDS011;18592;49.708;10.900;2022-09-09T08:37:22;0.73;;;0.60;;
21432;SDS011;18592;49.708;10.900;2022-09-09T08:39:24;1.67;;;0.80;;
21432;SDS011;18592;49.708;10.900;2022-09-09T08:43:34;0.90;;;0.60;;
21432;SDS011;18592;49.708;10.900;2022-09-09T08:45:45;2.40;;;0.70;;
21432;SDS011;18592;49.708;10.900;2022-09-09T08:50:21;2.15;;;0.80;;
21432;SDS011;18592;49.708;10.900;2022-09-09T08:52:49;2.25;;;0.77;;
21432;SDS011;18592;49.708;10.900;2022-09-09T08:57:40;4.45;;;1.10;;
21432;SDS011;18592;49.708;10.900;2022-09-09T08:59:42;2.38;;;0.98;;
21432;SDS011;18592;49.708;10.900;2022-09-09T09:06:38;3.28;;;0.82;;
21432;SDS011;18592;49.708;10.900;2022-09-09T09:09:00;1.55;;;0.88;;
21432;SDS011;18592;49.708;10.900;2022-09-09T09:11:06;2.42;;;0.90;;
21432;SDS011;18592;49.708;10.900;2022-09-09T09:13:11;1.85;;;0.98;;
21432;SDS011;18592;49.708;10.900;2022-09-09T09:15:23;2.25;;;0.63;;
21432;SDS011;18592;49.708;10.900;2022-09-09T09:17:32;2.03;;;0.80;;
21432;SDS011;18592;49.708;10.900;2022-09-09T09:19:35;1.25;;;0.80;;
21432;SDS011;18592;49.708;10.900;2022-09-09T09:23:46;2.95;;;1.05;;
21432;SDS011;18592;49.708;10.900;2022-09-09T09:26:05;2.25;;;0.75;;
21432;SDS011;18592;49.708;10.900;2022-09-09T09:28:19;1.48;;;0.70;;
21432;SDS011;18592;49.708;10.900;2022-09-09T09:30:31;1.92;;;0.80;;
21432;SDS011;18592;49.708;10.900;2022-09-09T09:35:30;3.08;;;1.05;;
21432;SDS011;18592;49.708;10.900;2022-09-09T09:37:34;1.42;;;0.90;;
21432;SDS011;18592;49.708;10.900;2022-09-09T09:39:38;1.80;;;0.70;;
21432;SDS011;18592;49.708;10.900;2022-09-09T09:42:09;2.58;;;0.82;;
21432;SDS011;18592;49.708;10.900;2022-09-09T09:44:24;3.50;;;1.05;;
21432;SDS011;18592;49.708;10.900;2022-09-09T09:46:29;1.48;;;0.90;;
21432;SDS011;18592;49.708;10.900;2022-09-09T09:48:39;3.42;;;1.45;;
21432;SDS011;18592;49.708;10.900;2022-09-09T09:50:48;3.40;;;1.40;;
21432;SDS011;18592;49.708;10.900;2022-09-09T09:52:56;3.92;;;1.02;;
21432;SDS011;18592;49.708;10.900;2022-09-09T09:55:03;2.60;;;0.85;;
21432;SDS011;18592;49.708;10.900;2022-09-09T09:57:14;2.50;;;0.73;;
21432;SDS011;18592;49.708;10.900;2022-09-09T09:59:24;2.45;;;0.75;;
21432;SDS011;18592;49.708;10.900;2022-09-09T10:01:52;1.77;;;0.73;;
21432;SDS011;18592;49.708;10.900;2022-09-09T10:03:58;1.55;;;0.70;;
21432;SDS011;18592;49.708;10.900;2022-09-09T10:06:02;3.45;;;0.90;;
21432;SDS011;18592;49.708;10.900;2022-09-09T10:08:14;3.05;;;0.60;;
21432;SDS011;18592;49.708;10.900;2022-09-09T10:10:20;2.55;;;0.80;;
21432;SDS011;18592;49.708;10.900;2022-09-09T10:17:18;2.58;;;1.00;;
21432;SDS011;18592;49.708;10.900;2022-09-09T10:19:34;4.95;;;0.85;;
21432;SDS011;18592;49.708;10.900;2022-09-09T10:21:57;2.47;;;0.85;;
21432;SDS011;18592;49.708;10.900;2022-09-09T10:26:22;2.33;;;0.70;;
21432;SDS011;18592;49.708;10.900;2022-09-09T10:28:32;4.13;;;0.77;;
21432;SDS011;18592;49.708;10.900;2022-09-09T10:35:53;3.50;;;0.90;;
21432;SDS011;18592;49.708;10.900;2022-09-09T10:38:16;2.88;;;0.70;;
21432;SDS011;18592;49.708;10.900;2022-09-09T10:40:27;1.55;;;0.70;;
21432;SDS011;18592;49.708;10.900;2022-09-09T10:42:46;1.85;;;0.73;;
21432;SDS011;18592;49.708;10.900;2022-09-09T10:45:10;0.82;;;0.50;;
21432;SDS011;18592;49.708;10.900;2022-09-09T10:47:32;2.05;;;1.02;;
21432;SDS011;18592;49.708;10.900;2022-09-09T10:52:05;2.08;;;0.63;;
21432;SDS011;18592;49.708;10.900;2022-09-09T10:59:41;2.47;;;0.88;;
21432;SDS011;18592;49.708;10.900;2022-09-09T11:01:57;1.60;;;0.47;;
21432;SDS011;18592;49.708;10.900;2022-09-09T11:04:19;1.92;;;0.70;;
21432;SDS011;18592;49.708;10.900;2022-09-09T11:06:28;1.63;;;0.68;;
21432;SDS011;18592;49.708;10.900;2022-09-09T11:08:39;2.03;;;0.80;;
21432;SDS011;18592;49.708;10.900;2022-09-09T11:12:59;2.72;;;0.68;;
21432;SDS011;18592;49.708;10.900;2022-09-09T11:15:13;3.20;;;0.90;;
21432;SDS011;18592;49.708;10.900;2022-09-09T11:17:23;1.40;;;0.68;;
21432;SDS011;18592;49.708;10.900;2022-09-09T11:19:34;2.92;;;1.00;;
21432;SDS011;18592;49.708;10.900;2022-09-09T11:21:40;1.63;;;0.90;;
21432;SDS011;18592;49.708;10.900;2022-09-09T11:23:51;1.38;;;0.70;;
21432;SDS011;18592;49.708;10.900;2022-09-09T11:25:59;1.17;;;0.70;;
21432;SDS011;18592;49.708;10.900;2022-09-09T11:28:22;2.33;;;0.88;;
21432;SDS011;18592;49.708;10.900;2022-09-09T11:42:27;1.40;;;0.70;;
21432;SDS011;18592;49.708;10.900;2022-09-09T11:44:29;2.47;;;0.70;;
21432;SDS011;18592;49.708;10.900;2022-09-09T11:46:33;1.58;;;0.77;;
21432;SDS011;18592;49.708;10.900;2022-09-09T11:48:42;1.15;;;0.70;;
21432;SDS011;18592;49.708;10.900;2022-09-09T11:50:46;1.33;;;0.55;;
21432;SDS011;18592;49.708;10.900;2022-09-09T11:53:18;1.80;;;0.75;;
21432;SDS011;18592;49.708;10.900;2022-09-09T11:55:26;1.85;;;0.77;;
21432;SDS011;18592;49.708;10.900;2022-09-09T11:57:36;1.52;;;0.88;;
21432;SDS011;18592;49.708;10.900;2022-09-09T11:59:38;0.82;;;0.60;;
21432;SDS011;18592;49.708;10.900;2022-09-09T12:01:41;2.83;;;0.80;;
21432;SDS011;18592;49.708;10.900;2022-09-09T12:03:46;1.60;;;0.80;;
21432;SDS011;18592;49.708;10.900;2022-09-09T12:05:52;4.00;;;0.80;;
21432;SDS011;18592;49.708;10.900;2022-09-09T12:07:56;2.20;;;0.60;;
21432;SDS011;18592;49.708;10.900;2022-09-09T12:12:25;1.58;;;0.70;;
21432;SDS011;18592;49.708;10.900;2022-09-09T12:14:38;1.33;;;0.68;;
21432;SDS011;18592;49.708;10.900;2022-09-09T12:16:44;2.33;;;0.60;;
21432;SDS011;18592;49.708;10.900;2022-09-09T12:18:47;1.05;;;0.68;;
21432;SDS011;18592;49.708;10.900;2022-09-09T12:20:54;2.92;;;1.00;;
21432;SDS011;18592;49.708;10.900;2022-09-09T12:23:34;1.25;;;0.80;;
21432;SDS011;18592;49.708;10.900;2022-09-09T12:30:10;1.38;;;0.68;;
21432;SDS011;18592;49.708;10.900;2022-09-09T12:32:27;1.90;;;1.08;;
21432;SDS011;18592;49.708;10.900;2022-09-09T12:37:18;3.33;;;1.50;;
21432;SDS011;18592;49.708;10.900;2022-09-09T12:39:29;2.15;;;1.13;;
21432;SDS011;18592;49.708;10.900;2022-09-09T12:41:51;1.52;;;1.00;;
21432;SDS011;18592;49.708;10.900;2022-09-09T12:44:05;2.30;;;0.80;;
21432;SDS011;18592;49.708;10.900;2022-09-09T12:46:14;1.33;;;0.70;;
21432;SDS011;18592;49.708;10.900;2022-09-09T12:48:27;1.50;;;0.65;;
21432;SDS011;18592;49.708;10.900;2022-09-09T12:50:35;1.60;;;0.70;;
21432;SDS011;18592;49.708;10.900;2022-09-09T12:52:40;1.35;;;0.50;;
21432;SDS011;18592;49.708;10.900;2022-09-09T12:54:45;1.02;;;0.50;;
21432;SDS011;18592;49.708;10.900;2022-09-09T12:56:48;1.08;;;0.60;;
21432;SDS011;18592;49.708;10.900;2022-09-09T12:58:51;1.95;;;0.60;;
21432;SDS011;18592;49.708;10.900;2022-09-09T13:00:54;1.98;;;0.50;;
21432;SDS011;18592;49.708;10.900;2022-09-09T13:02:59;1.40;;;0.57;;
21432;SDS011;18592;49.708;10.900;2022-09-09T13:05:16;1.90;;;0.70;;
21432;SDS011;18592;49.708;10.900;2022-09-09T13:07:25;1.52;;;0.55;;
21432;SDS011;18592;49.708;10.900;2022-09-09T13:09:29;3.28;;;0.70;;
21432;SDS011;18592;49.708;10.900;2022-09-09T13:11:52;1.50;;;0.60;;
21432;SDS011;18592;49.708;10.900;2022-09-09T13:14:03;1.48;;;0.63;;
21432;SDS011;18592;49.708;10.900;2022-09-09T13:16:06;2.28;;;0.60;;
21432;SDS011;18592;49.708;10.900;2022-09-09T13:18:25;1.27;;;0.43;;
21432;SDS011;18592;49.708;10.900;2022-09-09T13:20:35;1.25;;;0.70;;
21432;SDS011;18592;49.708;10.900;2022-09-09T13:22:37;1.17;;;0.68;;
21432;SDS011;18592;49.708;10.900;2022-09-09T13:24:41;0.85;;;0.50;;
21432;SDS011;18592;49.708;10.900;2022-09-09T13:26:43;1.08;;;0.55;;
21432;SDS011;18592;49.708;10.900;2022-09-09T13:29:15;2.17;;;0.80;;
21432;SDS011;18592;49.708;10.900;2022-09-09T13:31:23;0.85;;;0.55;;
21432;SDS011;18592;49.708;10.900;2022-09-09T13:33:38;1.75;;;0.63;;
21432;SDS011;18592;49.708;10.900;2022-09-09T13:35:46;1.27;;;0.60;;
21432;SDS011;18592;49.708;10.900;2022-09-09T13:37:51;0.77;;;0.50;;
21432;SDS011;18592;49.708;10.900;2022-09-09T13:39:53;1.17;;;0.50;;
21432;SDS011;18592;49.708;10.900;2022-09-09T13:41:56;1.25;;;0.52;;
21432;SDS011;18592;49.708;10.900;2022-09-09T13:43:59;1.23;;;0.68;;
21432;SDS011;18592;49.708;10.900;2022-09-09T13:46:04;0.95;;;0.50;;
21432;SDS011;18592;49.708;10.900;2022-09-09T13:48:28;0.90;;;0.52;;
21432;SDS011;18592;49.708;10.900;2022-09-09T13:50:31;1.75;;;0.60;;
21432;SDS011;18592;49.708;10.900;2022-09-09T13:52:33;1.75;;;0.60;;
21432;SDS011;18592;49.708;10.900;2022-09-09T13:54:34;1.90;;;0.73;;
21432;SDS011;18592;49.708;10.900;2022-09-09T13:56:37;0.95;;;0.52;;
21432;SDS011;18592;49.708;10.900;2022-09-09T13:58:41;1.25;;;0.55;;
21432;SDS011;18592;49.708;10.900;2022-09-09T14:00:46;1.25;;;0.60;;
21432;SDS011;18592;49.708;10.900;2022-09-09T14:02:48;2.10;;;0.70;;
21432;SDS011;18592;49.708;10.900;2022-09-09T14:04:50;2.45;;;0.77;;
21432;SDS011;18592;49.708;10.900;2022-09-09T14:06:56;2.10;;;0.70;;
21432;SDS011;18592;49.708;10.900;2022-09-09T14:08:57;1.15;;;0.60;;
21432;SDS011;18592;49.708;10.900;2022-09-09T14:11:00;1.65;;;0.63;;
21432;SDS011;18592;49.708;10.900;2022-09-09T14:13:01;1.63;;;0.77;;
21432;SDS011;18592;49.708;10.900;2022-09-09T14:15:03;1.63;;;0.60;;
21432;SDS011;18592;49.708;10.900;2022-09-09T14:17:06;1.13;;;0.57;;
21432;SDS011;18592;49.708;10.900;2022-09-09T14:19:08;0.95;;;0.60;;
21432;SDS011;18592;49.708;10.900;2022-09-09T14:21:11;1.02;;;0.60;;
21432;SDS011;18592;49.708;10.900;2022-09-09T14:23:13;1.27;;;0.70;;
21432;SDS011;18592;49.708;10.900;2022-09-09T14:25:16;2.03;;;0.68;;